createdAt,value
2022-10-19T00:01:23.293Z,14.70
2022-10-19T00:03:51.210Z,14.70
2022-10-19T00:06:19.652Z,14.70
2022-10-19T00:08:46.665Z,14.70
2022-10-19T00:11:13.649Z,14.60
2022-10-19T00:13:40.520Z,14.60
2022-10-19T00:16:11.293Z,14.60
2022-10-19T00:18:38.575Z,14.50
2022-10-19T00:21:06.151Z,14.40
2022-10-19T00:23:33.216Z,14.30
2022-10-19T00:26:00.118Z,14.30
2022-10-19T00:28:27.278Z,14.30
2022-10-19T00:30:55.554Z,14.30
2022-10-19T00:33:22.922Z,14.30
2022-10-19T00:35:53.155Z,14.30
2022-10-19T00:38:22.061Z,14.30
2022-10-19T00:40:49.199Z,14.20
2022-10-19T00:43:16.843Z,14.20
2022-10-19T00:45:43.791Z,14.20
2022-10-19T00:48:11.408Z,14.20
2022-10-19T00:50:38.519Z,14.20
2022-10-19T00:53:05.460Z,14.10
2022-10-19T00:55:32.410Z,14.20
2022-10-19T00:58:00.325Z,14.20
2022-10-19T01:00:27.211Z,14.20
2022-10-19T01:02:54.211Z,14.20
2022-10-19T01:05:21.104Z,14.20
2022-10-19T01:07:47.971Z,14.10
2022-10-19T01:10:14.804Z,14.10
2022-10-19T01:12:44.593Z,14.10
2022-10-19T01:15:23.663Z,14.10
2022-10-19T01:18:10.954Z,14.10
2022-10-19T01:20:43.906Z,14.10
2022-10-19T01:23:29.500Z,14.10
2022-10-19T01:26:02.351Z,14.10
2022-10-19T01:28:47.960Z,14.10
2022-10-19T01:31:14.856Z,14.10
2022-10-19T01:33:50.926Z,14.20
2022-10-19T01:36:18.871Z,14.20
2022-10-19T01:38:45.723Z,14.20
2022-10-19T01:41:15.365Z,14.20
2022-10-19T01:43:59.854Z,14.30
2022-10-19T01:46:53.158Z,14.20
2022-10-19T01:49:32.319Z,14.20
2022-10-19T01:52:00.689Z,14.10
2022-10-19T01:54:30.885Z,14.20
2022-10-19T01:56:58.477Z,14.10
2022-10-19T01:59:25.604Z,14.10
2022-10-19T02:01:52.827Z,14.00
2022-10-19T02:04:20.091Z,13.90
2022-10-19T02:06:47.060Z,13.90
2022-10-19T02:09:18.579Z,13.90
2022-10-19T02:11:49.041Z,13.90
2022-10-19T02:14:17.963Z,13.90
2022-10-19T02:16:50.385Z,13.80
2022-10-19T02:19:17.441Z,13.80
2022-10-19T02:21:45.277Z,13.80
2022-10-19T02:24:12.275Z,13.70
2022-10-19T02:26:39.291Z,13.60
2022-10-19T02:29:06.286Z,13.60
2022-10-19T02:31:33.205Z,13.60
2022-10-19T02:34:00.249Z,13.60
2022-10-19T02:36:27.686Z,13.60
2022-10-19T02:38:57.752Z,13.60
2022-10-19T02:41:28.123Z,13.60
2022-10-19T02:43:57.643Z,13.60
2022-10-19T02:46:27.794Z,13.70
2022-10-19T02:48:54.676Z,13.70
2022-10-19T02:51:34.362Z,13.70
2022-10-19T02:54:04.261Z,13.70
2022-10-19T02:56:32.672Z,13.70
2022-10-19T02:58:59.715Z,13.60
2022-10-19T03:01:26.742Z,13.60
2022-10-19T03:03:54.517Z,13.60
2022-10-19T03:06:21.588Z,13.60
2022-10-19T03:08:50.386Z,13.50
2022-10-19T03:11:17.345Z,13.50
2022-10-19T03:13:44.239Z,13.50
2022-10-19T03:16:11.705Z,13.50
2022-10-19T03:18:38.663Z,13.40
2022-10-19T03:21:07.419Z,13.40
2022-10-19T03:23:34.409Z,13.30
2022-10-19T03:26:01.435Z,13.40
2022-10-19T03:28:28.747Z,13.30
2022-10-19T03:30:55.943Z,13.30
2022-10-19T03:33:23.269Z,13.30
2022-10-19T03:35:50.184Z,13.30
2022-10-19T03:38:17.196Z,13.30
2022-10-19T03:40:44.314Z,13.30
2022-10-19T03:43:14.641Z,13.30
2022-10-19T03:45:43.837Z,13.40
2022-10-19T03:48:10.806Z,13.40
2022-10-19T03:50:37.676Z,13.40
2022-10-19T03:53:04.678Z,13.40
2022-10-19T03:55:31.537Z,13.40
2022-10-19T03:57:58.568Z,13.40
2022-10-19T04:00:25.505Z,13.30
2022-10-19T04:02:52.371Z,13.30
2022-10-19T04:05:19.290Z,13.30
2022-10-19T04:07:46.230Z,13.30
2022-10-19T04:10:13.181Z,13.30
2022-10-19T04:12:40.092Z,13.20
2022-10-19T04:15:07.531Z,13.20
2022-10-19T04:17:34.606Z,13.10
2022-10-19T04:20:01.714Z,13.10
2022-10-19T04:22:28.761Z,13.10
2022-10-19T04:24:55.659Z,13.10
2022-10-19T04:27:22.532Z,13.10
2022-10-19T04:29:51.654Z,13.20
2022-10-19T04:32:18.568Z,13.20
2022-10-19T04:34:45.462Z,13.20
2022-10-19T04:37:12.293Z,13.20
2022-10-19T04:39:41.241Z,13.20
2022-10-19T04:42:08.074Z,13.20
2022-10-19T04:44:35.294Z,13.10
2022-10-19T04:47:02.255Z,13.10
2022-10-19T04:49:29.186Z,13.10
2022-10-19T04:51:56.189Z,13.10
2022-10-19T04:54:25.193Z,13.10
2022-10-19T04:56:54.236Z,13.10
2022-10-19T04:59:22.110Z,13.00
2022-10-19T05:01:48.983Z,13.00
2022-10-19T05:04:15.903Z,13.00
2022-10-19T05:06:42.789Z,12.90
2022-10-19T05:09:09.711Z,13.00
2022-10-19T05:11:36.753Z,13.00
2022-10-19T05:14:03.638Z,13.00
2022-10-19T05:16:30.525Z,13.00
2022-10-19T05:18:59.228Z,13.00
2022-10-19T05:21:27.936Z,13.00
2022-10-19T05:23:55.331Z,13.10
2022-10-19T05:26:23.287Z,13.10
2022-10-19T05:28:50.905Z,13.10
2022-10-19T05:31:18.819Z,13.10
2022-10-19T05:33:46.645Z,13.10
2022-10-19T05:36:16.744Z,13.10
2022-10-19T05:38:43.900Z,13.10
2022-10-19T05:41:10.949Z,13.00
2022-10-19T05:43:37.973Z,13.10
2022-10-19T05:46:06.411Z,13.10
2022-10-19T05:48:34.256Z,13.10
2022-10-19T05:51:01.885Z,13.10
2022-10-19T05:53:29.627Z,13.10
2022-10-19T05:55:56.740Z,13.10
2022-10-19T05:58:23.809Z,13.10
2022-10-19T06:00:51.535Z,13.10
2022-10-19T06:03:18.545Z,13.00
2022-10-19T06:05:45.375Z,13.00
2022-10-19T06:08:12.409Z,13.10
2022-10-19T06:10:40.505Z,13.20
2022-10-19T06:13:07.499Z,13.30
2022-10-19T06:15:34.693Z,13.20
2022-10-19T06:18:01.577Z,13.20
2022-10-19T06:20:29.624Z,13.30
2022-10-19T06:22:56.718Z,13.40
2022-10-19T06:25:24.855Z,13.40
2022-10-19T06:27:52.028Z,13.40
2022-10-19T06:30:19.156Z,13.50
2022-10-19T06:32:46.208Z,13.40
2022-10-19T06:35:13.130Z,13.50
2022-10-19T06:37:40.102Z,13.50
2022-10-19T06:40:07.399Z,13.70
2022-10-19T06:42:34.435Z,13.80
2022-10-19T06:45:01.264Z,13.90
2022-10-19T06:47:33.420Z,13.90
2022-10-19T06:50:00.867Z,14.00
2022-10-19T06:52:27.802Z,14.10
2022-10-19T06:54:54.745Z,14.20
2022-10-19T06:57:21.606Z,14.40
2022-10-19T06:59:52.810Z,14.90
2022-10-19T07:02:20.890Z,15.50
2022-10-19T07:04:47.919Z,16.50
2022-10-19T07:07:14.830Z,17.50
2022-10-19T07:09:41.799Z,18.10
2022-10-19T07:12:11.042Z,18.70
2022-10-19T07:14:39.802Z,19.50
2022-10-19T07:17:07.661Z,20.40
2022-10-19T07:19:35.072Z,21.10
2022-10-19T07:22:02.128Z,21.80
2022-10-19T07:24:29.015Z,22.30
2022-10-19T07:26:56.375Z,22.80
2022-10-19T07:29:23.360Z,23.30
2022-10-19T07:31:50.293Z,23.90
2022-10-19T07:34:17.459Z,24.30
2022-10-19T07:36:45.454Z,24.80
2022-10-19T07:39:12.755Z,25.10
2022-10-19T07:41:39.700Z,25.50
2022-10-19T07:44:07.486Z,25.50
2022-10-19T07:46:40.455Z,25.70
2022-10-19T07:49:10.316Z,26.00
2022-10-19T07:51:38.168Z,26.50
2022-10-19T07:54:05.099Z,27.00
2022-10-19T07:56:32.131Z,27.60
2022-10-19T07:58:59.529Z,28.10
2022-10-19T08:01:30.759Z,28.70
2022-10-19T08:06:45.463Z,29.60
2022-10-19T08:09:40.177Z,29.70
2022-10-19T08:12:12.382Z,30.20
2022-10-19T08:14:41.676Z,30.60
2022-10-19T08:17:11.722Z,31.00
2022-10-19T08:19:43.748Z,31.20
2022-10-19T08:22:11.016Z,31.70
2022-10-19T08:24:38.086Z,32.00
2022-10-19T08:27:05.032Z,32.00
2022-10-19T08:29:32.253Z,31.80
2022-10-19T08:31:59.319Z,31.30
2022-10-19T08:34:26.407Z,31.20
2022-10-19T08:36:53.519Z,31.90
2022-10-19T08:39:20.647Z,32.30
2022-10-19T08:42:03.668Z,33.00
2022-10-19T08:44:52.918Z,33.50
2022-10-19T08:47:31.967Z,33.20
2022-10-19T08:49:58.993Z,33.50
2022-10-19T08:52:35.817Z,34.00
2022-10-19T08:55:07.352Z,34.20
2022-10-19T08:57:46.598Z,33.60
2022-10-19T09:00:28.352Z,32.60
2022-10-19T09:02:55.242Z,31.60
2022-10-19T09:05:25.225Z,30.90
2022-10-19T09:07:52.375Z,30.00
2022-10-19T09:10:22.120Z,29.70
2022-10-19T09:12:53.880Z,29.40
2022-10-19T09:15:27.623Z,29.00
2022-10-19T09:17:54.804Z,29.70
2022-10-19T09:20:22.880Z,31.20
2022-10-19T09:23:15.881Z,31.80
2022-10-19T09:25:43.005Z,31.50
2022-10-19T09:28:33.900Z,31.60
2022-10-19T09:31:05.889Z,32.00
2022-10-19T09:33:35.891Z,32.50
2022-10-19T09:36:03.183Z,32.50
2022-10-19T09:38:30.334Z,32.00
2022-10-19T09:41:42.090Z,31.10
2022-10-19T09:44:09.129Z,29.90
2022-10-19T09:46:39.152Z,28.60
2022-10-19T09:49:06.516Z,27.50
2022-10-19T09:51:51.959Z,26.70
2022-10-19T09:54:31.914Z,26.00
2022-10-19T09:56:59.004Z,25.60
2022-10-19T09:59:29.834Z,25.50
2022-10-19T10:02:14.719Z,25.60
2022-10-19T10:04:41.724Z,25.90
2022-10-19T10:07:11.428Z,25.70
2022-10-19T10:09:38.414Z,25.50
2022-10-19T10:12:08.631Z,25.30
2022-10-19T10:14:35.926Z,25.30
2022-10-19T10:17:12.349Z,25.70
2022-10-19T10:19:39.791Z,25.90
2022-10-19T10:22:06.773Z,25.70
2022-10-19T10:24:33.768Z,25.50
2022-10-19T10:27:01.340Z,25.40
2022-10-19T10:29:32.879Z,25.10
2022-10-19T10:32:12.898Z,24.80
2022-10-19T10:34:50.546Z,24.60
2022-10-19T10:37:23.053Z,24.50
2022-10-19T10:39:53.283Z,24.50
2022-10-19T10:42:20.966Z,24.70
2022-10-19T10:44:52.171Z,24.70
2022-10-19T10:47:20.922Z,24.60
2022-10-19T10:49:57.614Z,24.60
2022-10-19T10:52:29.453Z,24.50
2022-10-19T10:55:09.485Z,24.40
2022-10-19T10:57:40.581Z,24.40
2022-10-19T11:00:28.096Z,24.40
2022-10-19T11:02:55.000Z,24.40
2022-10-19T11:05:23.673Z,24.30
2022-10-19T11:07:54.685Z,24.30
2022-10-19T11:10:24.027Z,24.40
2022-10-19T11:13:29.656Z,24.80
2022-10-19T11:16:00.801Z,25.10
2022-10-19T11:18:30.365Z,25.30
2022-10-19T11:21:00.000Z,25.20
2022-10-19T11:23:34.922Z,25.00
2022-10-19T11:26:20.257Z,25.00
2022-10-19T11:28:50.171Z,25.00
2022-10-19T11:31:17.044Z,25.00
2022-10-19T11:34:00.526Z,25.00
2022-10-19T11:36:39.654Z,25.00
2022-10-19T11:39:26.532Z,25.00
2022-10-19T11:42:19.483Z,25.00
2022-10-19T11:44:51.923Z,24.90
2022-10-19T11:47:24.455Z,24.70
2022-10-19T11:50:15.559Z,24.60
2022-10-19T11:53:14.135Z,24.50
2022-10-19T11:55:41.078Z,24.30
2022-10-19T11:58:08.017Z,24.00
2022-10-19T12:00:39.599Z,23.80
2022-10-19T12:03:06.894Z,23.70
2022-10-19T12:05:35.919Z,23.60
2022-10-19T12:08:05.568Z,23.60
2022-10-19T12:10:50.623Z,23.50
2022-10-19T12:13:21.260Z,23.60
2022-10-19T12:15:53.839Z,23.80
2022-10-19T12:18:23.583Z,24.20
2022-10-19T12:20:51.424Z,24.60
2022-10-19T12:23:33.923Z,24.90
2022-10-19T12:26:04.031Z,25.00
2022-10-19T12:28:31.531Z,25.10
2022-10-19T12:30:59.060Z,25.00
2022-10-19T12:33:38.368Z,24.70
2022-10-19T12:36:08.702Z,24.60
2022-10-19T12:38:45.978Z,24.90
2022-10-19T12:41:14.913Z,26.00
2022-10-19T12:43:44.076Z,27.70
2022-10-19T12:46:20.067Z,28.80
2022-10-19T12:48:49.121Z,30.70
2022-10-19T12:51:16.267Z,32.20
2022-10-19T12:53:46.589Z,32.10
2022-10-19T12:56:15.481Z,32.10
2022-10-19T12:58:47.643Z,32.10
2022-10-19T13:01:23.483Z,31.70
2022-10-19T13:03:51.990Z,32.00
2022-10-19T13:06:20.514Z,31.60
2022-10-19T13:08:47.803Z,30.70
2022-10-19T13:11:21.056Z,30.20
2022-10-19T13:14:07.633Z,30.80
2022-10-19T13:16:41.670Z,31.80
2022-10-19T13:19:15.875Z,32.70
2022-10-19T13:21:52.844Z,33.50
2022-10-19T13:24:46.717Z,34.40
2022-10-19T13:27:26.967Z,35.10
2022-10-19T13:29:56.956Z,34.20
2022-10-19T13:32:35.225Z,33.30
2022-10-19T13:35:21.840Z,33.40
2022-10-19T13:38:07.466Z,34.00
2022-10-19T13:40:34.489Z,34.40
2022-10-19T13:43:01.475Z,34.50
2022-10-19T13:45:28.523Z,34.20
2022-10-19T13:47:57.505Z,34.60
2022-10-19T13:50:24.482Z,34.70
2022-10-19T13:53:06.582Z,34.50
2022-10-19T13:55:39.551Z,34.70
2022-10-19T13:58:24.974Z,34.80
2022-10-19T14:00:55.151Z,34.10
2022-10-19T14:06:41.290Z,32.20
2022-10-19T14:09:29.925Z,31.60
2022-10-19T14:12:17.100Z,31.60
2022-10-19T14:14:44.268Z,30.90
2022-10-19T14:17:26.420Z,30.30
2022-10-19T14:20:09.579Z,30.10
2022-10-19T14:22:37.101Z,30.50
2022-10-19T14:25:15.513Z,30.60
2022-10-19T14:27:42.408Z,30.30
2022-10-19T14:30:30.374Z,29.80
2022-10-19T14:33:03.803Z,29.80
2022-10-19T14:35:35.183Z,30.20
2022-10-19T14:38:09.399Z,30.50
2022-10-19T14:40:41.579Z,30.80
2022-10-19T14:43:22.072Z,30.90
2022-10-19T14:46:08.517Z,30.30
2022-10-19T14:48:35.781Z,29.40
2022-10-19T14:51:02.714Z,28.40
2022-10-19T14:53:52.669Z,27.60
2022-10-19T14:56:33.842Z,27.00
2022-10-19T14:59:08.337Z,26.30
2022-10-19T15:01:35.570Z,25.70
2022-10-19T15:04:04.501Z,25.40
2022-10-19T15:06:32.057Z,25.00
2022-10-19T15:09:01.369Z,24.80
2022-10-19T15:11:31.175Z,24.70
2022-10-19T15:14:00.822Z,24.50
2022-10-19T15:16:31.911Z,24.40
2022-10-19T15:19:02.582Z,24.20
2022-10-19T15:21:33.196Z,24.10
2022-10-19T15:24:17.277Z,24.10
2022-10-19T15:26:54.653Z,24.00
2022-10-19T15:29:30.834Z,23.90
2022-10-19T15:32:12.384Z,23.70
2022-10-19T15:34:39.352Z,23.70
2022-10-19T15:37:08.370Z,23.60
2022-10-19T15:39:43.347Z,23.70
2022-10-19T15:42:31.592Z,23.60
2022-10-19T15:44:58.553Z,23.60
2022-10-19T15:47:28.171Z,23.60
2022-10-19T15:49:56.379Z,23.50
2022-10-19T15:52:24.198Z,23.50
2022-10-19T15:54:51.585Z,23.40
2022-10-19T15:57:34.845Z,23.30
2022-10-19T16:00:15.173Z,23.30
2022-10-19T16:02:42.284Z,23.10
2022-10-19T16:05:09.469Z,23.00
2022-10-19T16:07:37.095Z,22.90
2022-10-19T16:10:04.456Z,22.80
2022-10-19T16:12:31.434Z,22.70
2022-10-19T16:14:58.535Z,22.60
2022-10-19T16:17:28.642Z,22.50
2022-10-19T16:19:55.569Z,22.50
2022-10-19T16:22:22.586Z,22.30
2022-10-19T16:24:49.723Z,22.20
2022-10-19T16:27:19.252Z,22.10
2022-10-19T16:29:48.926Z,22.00
2022-10-19T16:32:15.986Z,21.90
2022-10-19T16:34:43.008Z,21.80
2022-10-19T16:37:09.988Z,21.70
2022-10-19T16:39:37.464Z,21.60
2022-10-19T16:42:04.585Z,21.50
2022-10-19T16:44:31.503Z,21.40
2022-10-19T16:47:00.031Z,21.30
2022-10-19T16:49:27.051Z,21.30
2022-10-19T16:51:57.216Z,21.20
2022-10-19T16:54:25.070Z,21.10
2022-10-19T16:56:52.174Z,21.00
2022-10-19T16:59:19.132Z,21.00
2022-10-19T17:01:46.525Z,20.90
2022-10-19T17:04:13.759Z,20.80
2022-10-19T17:06:41.662Z,20.70
2022-10-19T17:11:57.103Z,20.50
2022-10-19T17:14:23.994Z,20.50
2022-10-19T17:16:50.905Z,20.50
2022-10-19T17:19:17.963Z,20.50
2022-10-19T17:21:44.915Z,20.50
2022-10-19T17:24:21.014Z,20.50
2022-10-19T17:26:50.260Z,20.50
2022-10-19T17:29:17.412Z,20.50
2022-10-19T17:31:44.557Z,20.50
2022-10-19T17:37:11.602Z,20.50
2022-10-19T17:39:45.971Z,20.40
2022-10-19T17:42:15.715Z,20.30
2022-10-19T17:44:42.872Z,20.30
2022-10-19T17:47:09.848Z,20.20
2022-10-19T17:49:37.237Z,20.10
2022-10-19T17:52:04.153Z,20.10
2022-10-19T17:54:43.353Z,20.10
2022-10-19T17:57:19.431Z,20.10
2022-10-19T17:59:52.572Z,20.10
2022-10-19T18:02:20.360Z,20.10
2022-10-19T18:04:47.572Z,20.10
2022-10-19T18:07:16.550Z,20.00
2022-10-19T18:09:45.210Z,19.90
2022-10-19T18:12:13.571Z,19.90
2022-10-19T18:14:40.627Z,19.80
2022-10-19T18:17:09.653Z,19.60
2022-10-19T18:19:36.678Z,19.50
2022-10-19T18:22:03.764Z,19.40
2022-10-19T18:24:31.367Z,19.30
2022-10-19T18:26:58.509Z,19.30
2022-10-19T18:29:25.620Z,19.30
2022-10-19T18:31:52.985Z,19.30
2022-10-19T18:34:21.574Z,19.30
2022-10-19T18:36:49.281Z,19.30
2022-10-19T18:39:17.176Z,19.30
2022-10-19T18:41:44.151Z,19.20
2022-10-19T18:44:11.947Z,19.20
2022-10-19T18:46:39.067Z,19.20
2022-10-19T18:49:06.960Z,19.10
2022-10-19T18:51:34.086Z,19.10
2022-10-19T18:54:01.153Z,19.00
2022-10-19T18:56:29.634Z,19.00
2022-10-19T18:58:56.916Z,18.90
2022-10-19T19:01:24.750Z,18.90
2022-10-19T19:03:52.013Z,18.80
2022-10-19T19:06:19.794Z,18.80
2022-10-19T19:08:46.677Z,18.80
2022-10-19T19:11:13.614Z,18.70
2022-10-19T19:13:40.710Z,18.60
2022-10-19T19:16:10.316Z,18.60
2022-10-19T19:18:40.601Z,18.60
2022-10-19T19:21:13.211Z,18.50
2022-10-19T19:23:40.207Z,18.50
2022-10-19T19:26:07.744Z,18.40
2022-10-19T19:28:40.669Z,18.40
2022-10-19T19:31:09.417Z,18.30
2022-10-19T19:33:37.123Z,18.30
2022-10-19T19:36:06.565Z,18.20
2022-10-19T19:38:33.584Z,18.10
2022-10-19T19:41:03.993Z,18.10
2022-10-19T19:43:33.168Z,18.00
2022-10-19T19:46:03.305Z,17.90
2022-10-19T19:48:33.519Z,17.90
2022-10-19T19:51:00.888Z,17.80
2022-10-19T19:53:27.861Z,17.80
2022-10-19T19:55:55.251Z,17.70
2022-10-19T19:58:22.367Z,17.60
2022-10-19T20:00:49.339Z,17.60
2022-10-19T20:03:16.572Z,17.50
2022-10-19T20:05:43.426Z,17.50
2022-10-19T20:08:10.746Z,17.50
2022-10-19T20:10:38.181Z,17.40
2022-10-19T20:15:37.550Z,17.40
2022-10-19T20:18:06.812Z,17.40
2022-10-19T20:20:33.801Z,17.30
2022-10-19T20:23:00.671Z,17.30
2022-10-19T20:25:28.205Z,17.20
2022-10-19T20:27:55.258Z,17.20
2022-10-19T20:30:22.302Z,17.20
2022-10-19T20:32:55.595Z,17.10
2022-10-19T20:35:25.436Z,17.10
2022-10-19T20:37:52.507Z,17.10
2022-10-19T20:40:19.409Z,17.00
2022-10-19T20:42:46.593Z,16.90
2022-10-19T20:45:13.575Z,16.90
2022-10-19T20:47:40.860Z,16.90
2022-10-19T20:50:08.230Z,16.80
2022-10-19T20:52:35.507Z,16.70
2022-10-19T20:55:02.646Z,16.70
2022-10-19T20:57:29.630Z,16.60
2022-10-19T20:59:56.639Z,16.50
2022-10-19T21:02:24.155Z,16.50
2022-10-19T21:04:51.401Z,16.40
2022-10-19T21:07:20.348Z,16.40
2022-10-19T21:09:47.266Z,16.40
2022-10-19T21:12:14.467Z,16.40
2022-10-19T21:14:41.384Z,16.40
2022-10-19T21:17:09.347Z,16.30
2022-10-19T21:19:36.408Z,16.30
2022-10-19T21:22:03.643Z,16.30
2022-10-19T21:24:32.879Z,16.30
2022-10-19T21:27:01.142Z,16.20
2022-10-19T21:29:28.394Z,16.20
2022-10-19T21:31:55.371Z,16.20
2022-10-19T21:34:29.954Z,16.10
2022-10-19T21:36:57.517Z,15.80
2022-10-19T21:39:24.777Z,15.70
2022-10-19T21:41:52.011Z,15.70
2022-10-19T21:44:19.100Z,15.70
2022-10-19T21:46:49.295Z,15.60
2022-10-19T21:49:16.298Z,15.50
2022-10-19T21:51:44.705Z,15.40
2022-10-19T21:54:13.075Z,15.40
2022-10-19T21:56:40.237Z,15.40
2022-10-19T21:59:10.576Z,15.50
2022-10-19T22:01:40.378Z,15.50
2022-10-19T22:04:12.791Z,15.50
2022-10-19T22:06:39.756Z,15.50
2022-10-19T22:09:07.082Z,15.50
2022-10-19T22:11:34.041Z,15.50
2022-10-19T22:14:01.370Z,15.50
2022-10-19T22:16:28.569Z,15.40
2022-10-19T22:18:55.508Z,15.40
2022-10-19T22:21:23.576Z,15.20
2022-10-19T22:23:51.842Z,15.20
2022-10-19T22:26:19.640Z,15.20
2022-10-19T22:28:46.521Z,15.20
2022-10-19T22:31:13.354Z,15.20
2022-10-19T22:33:40.268Z,15.20
2022-10-19T22:36:07.729Z,15.20
2022-10-19T22:38:34.777Z,15.20
2022-10-19T22:41:21.834Z,15.10
2022-10-19T22:43:48.933Z,15.10
2022-10-19T22:46:15.822Z,15.10
2022-10-19T22:48:42.782Z,15.10
2022-10-19T22:51:09.707Z,15.00
2022-10-19T22:53:36.670Z,15.00
2022-10-19T22:56:03.837Z,15.00
2022-10-19T22:58:30.904Z,15.00
2022-10-19T23:01:01.510Z,14.90
2022-10-19T23:03:28.567Z,14.70
2022-10-19T23:05:58.155Z,14.70
2022-10-19T23:08:28.241Z,14.60
2022-10-19T23:10:57.788Z,14.60
2022-10-19T23:13:25.202Z,14.60
2022-10-19T23:15:52.524Z,14.60
2022-10-19T23:18:19.506Z,14.60
2022-10-19T23:21:02.258Z,14.50
2022-10-19T23:23:29.544Z,14.50
2022-10-19T23:25:59.994Z,14.40
2022-10-19T23:28:30.120Z,14.50
2022-10-19T23:30:58.805Z,14.40
2022-10-19T23:33:34.953Z,14.30
2022-10-19T23:36:15.493Z,14.20
2022-10-19T23:38:46.718Z,14.20
2022-10-19T23:41:13.726Z,14.20
2022-10-19T23:43:40.925Z,14.10
2022-10-19T23:46:10.980Z,14.00
2022-10-19T23:48:38.161Z,14.00
2022-10-19T23:51:08.982Z,14.00
2022-10-19T23:53:39.991Z,14.00
2022-10-19T23:56:23.537Z,14.10
2022-10-19T23:58:51.006Z,14.00
